首页
METAR-TAF:

METAR-TAF

机场 :

Villacoublay, 法国

纬度: 48-46N, 经度: 002-12E, 海拔: 177米

当前天气观测

该预报发布于42分钟前的16:00 UTC
风速11节,风向东北,在东转东北之间变化
温度 32°C
湿度 56%
气压 1020 hPa
能见度10公里或以上
1500米以下无云,无积雨云

METAR: LFPV 261600Z AUTO 05011KT 010V070 CAVOK 32/22 Q1020 NOSIG

时间: 18:42 (16:42 UTC)

预报

该预报发布于2小时和42分钟前的14:00 UTC
预报有效从26日的 15点(UTC)到 27日的 15点(UTC)
风速15节,风向东转东北
能见度10公里或以上
1500米以下无云,无积雨云

TAF: LFPV 261400Z 2615/2715 06015KT CAVOK

超过4000个机场的气象观测和天气预报(METAR&TAF报告)。

可查询的气象台以黄色和红色小点在地图上表示。

将鼠标移到小点上方,可查看气象台名称。

然后点击查看天气观测和预报。

如需切换地图:点击带黑十字的绿色按钮放大地图;点击带横线的绿色按钮缩小地图;或者点击绿色箭头查看邻近地区的地图。


METAR-TAF: